Terminal Aerodrome Forecast
Issued by NWS Des Moines, IA

Home | Current Version | Previous Version | Text Only | Print | Product List | Glossary On
Versions: 1 2 3 4 5 6 7 8 9 10 11 12 13 14 15 16 17 18 19 20 21 22 23 24 25 26 27 28 29 30 31 32 33 34 35 36 37 38 39
000
FTUS43 KDMX 230520
TAFALO
TAF
KALO 230520Z 2306/2406 VRB03KT P6SM SCT025
     FM230800 VRB03KT 2SM BR SCT009
      TEMPO 2310/2312 1/2SM FG BKN007
     FM231200 07005KT 4SM BR SCT025
     FM231500 11009KT P6SM SCT040
     FM231800 13012G17KT P6SM FEW050 SCT160
     FM240000 14009KT P6SM SCT120=

USA.gov is the U.S. government's official web portal to all federal, state and local government web resources and services.